Time;durP1;ratioP1;P1;durP2;ratioP2;P2;SDS_P1;SDS_P2;PMS_P1;PMS_P2;Temp;Humidity;BMP_temperature;BMP_pressure;BME280_temperature;BME280_humidity;BME280_pressure;Samples;Min_cycle;Max_cycle;Signal;HPM_P1;HPM_P2
2022/10/26 00:00:15;;;;;;;7.72;5.62;;;;;;;12.33;100.00;100110.61;1772219;80;21103;-67
2022/10/26 00:02:44;;;;;;;7.55;5.10;;;;;;;12.34;100.00;100106.80;1779660;80;21154;-66
2022/10/26 00:05:14;;;;;;;7.85;5.10;;;;;;;12.33;100.00;100110.08;1776058;80;21593;-66
2022/10/26 00:07:43;;;;;;;5.95;4.15;;;;;;;12.32;100.00;100112.52;1752102;80;21131;-66
2022/10/26 00:10:12;;;;;;;6.72;4.17;;;;;;;12.31;100.00;100112.20;1764795;80;21119;-65
2022/10/26 00:12:41;;;;;;;6.97;4.75;;;;;;;12.30;100.00;100111.88;1751937;80;21115;-67
2022/10/26 00:15:12;;;;;;;7.20;4.40;;;;;;;12.30;100.00;100112.41;1758407;80;21091;-65
2022/10/26 00:17:43;;;;;;;8.10;5.30;;;;;;;12.32;100.00;100113.88;1770432;80;21068;-67
2022/10/26 00:20:14;;;;;;;7.78;4.95;;;;;;;12.31;100.00;100123.19;1764944;80;21135;-65
2022/10/26 00:22:43;;;;;;;6.55;5.12;;;;;;;12.31;100.00;100119.06;1764745;80;21523;-65
2022/10/26 00:25:12;;;;;;;6.80;5.17;;;;;;;12.32;100.00;100127.63;1756882;80;21103;-65
2022/10/26 00:27:42;;;;;;;7.90;5.47;;;;;;;12.31;100.00;100128.68;1769546;80;21064;-67
2022/10/26 00:30:11;;;;;;;7.20;5.50;;;;;;;12.28;100.00;100129.11;1769520;80;21131;-65
2022/10/26 00:32:40;;;;;;;7.85;5.90;;;;;;;12.26;100.00;100126.27;1752081;80;21178;-68
2022/10/26 00:35:11;;;;;;;9.75;6.65;;;;;;;12.24;100.00;100123.73;1762902;80;21104;-66
2022/10/26 00:37:43;;;;;;;9.48;6.65;;;;;;;12.22;100.00;100125.85;1763018;80;21294;-66
2022/10/26 00:40:14;;;;;;;10.72;6.35;;;;;;;12.23;100.00;100129.44;1776065;80;21495;-66
2022/10/26 00:42:43;;;;;;;10.13;6.75;;;;;;;12.24;100.00;100127.86;1769431;80;21548;-66
2022/10/26 00:45:25;;;;;;;10.88;7.17;;;;;;;12.24;100.00;100131.98;1759795;80;21589;-65
2022/10/26 00:48:05;;;;;;;10.55;7.10;;;;;;;12.21;100.00;100135.68;1770238;80;21568;-66
2022/10/26 00:50:38;;;;;;;11.22;7.75;;;;;;;12.18;100.00;100136.95;1768651;80;21142;-67
2022/10/26 00:53:07;;;;;;;10.58;7.70;;;;;;;12.17;100.00;100133.89;1764673;80;21142;-66
2022/10/26 00:55:41;;;;;;;12.70;9.05;;;;;;;12.17;100.00;100131.15;1766179;80;21186;-66
2022/10/26 00:58:11;;;;;;;14.45;9.43;;;;;;;12.18;100.00;100136.11;1762888;80;21527;-66
2022/10/26 01:00:41;;;;;;;14.50;9.08;;;;;;;12.17;100.00;100128.40;1751992;80;21155;-67
2022/10/26 01:03:10;;;;;;;12.37;8.90;;;;;;;12.16;100.00;100140.45;1752245;80;21171;-66
2022/10/26 01:05:42;;;;;;;11.10;8.18;;;;;;;12.18;100.00;100131.99;1764745;80;21127;-67
2022/10/26 01:08:12;;;;;;;11.25;8.48;;;;;;;12.18;100.00;100130.09;1751632;82;21199;-67
2022/10/26 01:10:41;;;;;;;11.90;7.97;;;;;;;12.19;100.00;100134.52;1764495;80;21103;-67
2022/10/26 01:16:42;;;;;;;11.03;7.92;;;;;;;12.21;100.00;100129.66;1653414;85;21202;-65
2022/10/26 01:19:25;;;;;;;11.63;7.30;;;;;;;12.21;100.00;100134.31;1653639;87;21098;-67
2022/10/26 01:22:16;;;;;;;10.30;7.70;;;;;;;12.21;100.00;100136.53;1627267;87;21114;-67
2022/10/26 01:25:23;;;;;;;9.13;6.53;;;;;;;12.19;100.00;100137.27;1644549;87;21214;-66
2022/10/26 01:27:52;;;;;;;9.18;6.55;;;;;;;12.18;100.00;100136.95;1609964;88;21219;-67
2022/10/26 01:30:39;;;;;;;9.38;6.03;;;;;;;12.17;100.00;100143.51;1634948;87;21166;-68
2022/10/26 01:33:40;;;;;;;8.73;6.37;;;;;;;12.17;100.00;100137.17;1651442;84;21154;-70
2022/10/26 01:36:35;;;;;;;10.68;6.85;;;;;;;12.18;100.00;100132.83;1699852;84;21143;-67
2022/10/26 01:39:12;;;;;;;8.15;6.37;;;;;;;12.19;100.00;100130.41;1705872;84;21170;-67
2022/10/26 01:41:50;;;;;;;10.30;6.78;;;;;;;12.19;100.00;100131.78;1707761;84;21542;-66
2022/10/26 01:44:40;;;;;;;10.13;6.90;;;;;;;12.17;100.00;100138.02;1703819;84;21116;-67
2022/10/26 01:47:11;;;;;;;8.83;6.78;;;;;;;12.15;100.00;100133.27;1703805;84;21138;-68
2022/10/26 01:49:46;;;;;;;9.95;6.53;;;;;;;12.18;100.00;100127.34;1677713;84;21175;-67
2022/10/26 01:52:14;;;;;;;11.12;7.10;;;;;;;12.17;100.00;100131.15;1718803;83;21165;-67
2022/10/26 01:54:44;;;;;;;8.88;6.50;;;;;;;12.17;100.00;100131.67;1705483;83;21648;-66
2022/10/26 01:57:17;;;;;;;10.85;6.37;;;;;;;12.18;100.00;100136.95;1720959;83;21154;-69
2022/10/26 02:00:08;;;;;;;8.28;5.58;;;;;;;12.21;100.00;100137.05;1704651;83;21123;-68
2022/10/26 02:02:56;;;;;;;7.72;5.00;;;;;;;12.21;100.00;100135.16;1715782;83;21232;-68
2022/10/26 02:05:45;;;;;;;13.32;5.62;;;;;;;12.20;100.00;100138.95;1702137;83;21542;-68
2022/10/26 02:08:35;;;;;;;9.85;5.50;;;;;;;12.19;100.00;100140.02;1718541;83;21174;-68
2022/10/26 02:11:17;;;;;;;8.30;5.42;;;;;;;12.19;100.00;100144.66;1708680;83;21715;-68
2022/10/26 02:13:54;;;;;;;8.68;5.53;;;;;;;12.18;100.00;100147.09;1704413;83;21178;-67
2022/10/26 02:16:38;;;;;;;10.45;5.70;;;;;;;12.19;100.00;100144.66;1717312;83;21142;-67
2022/10/26 02:19:37;;;;;;;10.08;6.30;;;;;;;12.19;100.00;100144.66;1720703;83;21162;-65
2022/10/26 02:22:11;;;;;;;10.15;6.03;;;;;;;12.19;100.00;100142.77;1718441;83;21197;-67
2022/10/26 02:24:41;;;;;;;10.25;6.65;;;;;;;12.20;100.00;100142.23;1718758;83;21151;-65
2022/10/26 02:27:15;;;;;;;10.88;5.70;;;;;;;12.19;100.00;100149.63;1717856;83;21130;-66
2022/10/26 02:29:45;;;;;;;8.38;5.97;;;;;;;12.20;100.00;100143.08;1715680;83;21601;-66
2022/10/26 02:32:14;;;;;;;10.72;6.12;;;;;;;12.20;100.00;100150.48;1718085;83;21181;-66
2022/10/26 02:34:45;;;;;;;9.23;5.90;;;;;;;12.20;100.00;100148.58;1718534;83;21612;-66
2022/10/26 02:37:15;;;;;;;7.90;5.72;;;;;;;12.20;100.00;100151.31;1715568;83;21154;-66
2022/10/26 02:39:44;;;;;;;8.68;5.78;;;;;;;12.21;100.00;100148.05;1717837;83;21148;-66
2022/10/26 02:42:13;;;;;;;7.95;5.97;;;;;;;12.22;100.00;100148.36;1721230;83;21134;-67
2022/10/26 02:44:53;;;;;;;8.73;5.70;;;;;;;12.22;100.00;100152.48;1718625;83;21181;-65
2022/10/26 02:47:22;;;;;;;7.90;5.67;;;;;;;12.20;100.00;100149.94;1705511;83;21209;-66
2022/10/26 02:49:50;;;;;;;7.83;5.67;;;;;;;12.20;100.00;100150.48;1716356;83;21539;-67
2022/10/26 02:52:30;;;;;;;10.05;6.42;;;;;;;12.21;100.00;100150.79;1717924;83;22283;-67
2022/10/26 02:55:24;;;;;;;9.83;6.70;;;;;;;12.21;100.00;100147.52;1717783;83;21110;-66
2022/10/26 02:58:03;;;;;;;9.23;6.70;;;;;;;12.20;100.00;100143.08;1715678;83;21127;-67
2022/10/26 03:00:33;;;;;;;10.30;6.45;;;;;;;12.19;100.00;100149.63;1717681;83;21158;-67
2022/10/26 03:03:04;;;;;;;9.30;6.42;;;;;;;12.19;100.00;100154.28;1717931;83;21177;-67
2022/10/26 03:05:36;;;;;;;10.28;6.33;;;;;;;12.19;100.00;100150.16;1719683;83;21154;-68
2022/10/26 03:08:05;;;;;;;9.75;6.37;;;;;;;12.18;100.00;100161.67;1720220;83;21161;-66
2022/10/26 03:10:42;;;;;;;9.65;6.70;;;;;;;12.17;100.00;100158.61;1717773;83;21091;-67
2022/10/26 03:13:12;;;;;;;10.53;6.08;;;;;;;12.19;100.00;100162.52;1720230;83;21138;-67
2022/10/26 03:15:41;;;;;;;8.70;6.12;;;;;;;12.18;100.00;100161.67;1688139;83;21134;-67
2022/10/26 03:18:10;;;;;;;8.50;6.40;;;;;;;12.17;100.00;100165.48;1709941;83;21134;-66
2022/10/26 03:20:45;;;;;;;8.60;5.72;;;;;;;12.16;100.00;100160.20;1712971;83;21130;-66
2022/10/26 03:23:14;;;;;;;8.60;5.65;;;;;;;12.16;100.00;100165.16;1712623;84;21170;-66
2022/10/26 03:25:44;;;;;;;9.63;6.08;;;;;;;12.18;100.00;100160.83;1713165;84;21126;-67
2022/10/26 03:28:14;;;;;;;8.53;5.90;;;;;;;12.19;100.00;100163.89;1712280;84;21165;-66
2022/10/26 03:30:43;;;;;;;10.58;6.30;;;;;;;12.19;100.00;100160.62;1710526;82;21194;-67
2022/10/26 03:33:13;;;;;;;7.78;5.95;;;;;;;12.18;100.00;100161.67;1711651;83;21130;-67
2022/10/26 03:35:42;;;;;;;9.33;5.90;;;;;;;12.18;100.00;100159.45;1709779;84;21114;-68
2022/10/26 03:38:11;;;;;;;9.13;5.60;;;;;;;12.18;100.00;100166.33;1711404;84;21198;-67
2022/10/26 03:40:42;;;;;;;9.50;6.28;;;;;;;12.16;100.00;100162.95;1701882;84;21186;-67
2022/10/26 03:43:11;;;;;;;11.20;5.97;;;;;;;12.17;100.00;100166.86;1710866;84;21166;-66
2022/10/26 03:45:40;;;;;;;8.70;5.85;;;;;;;12.18;100.00;100168.55;1710439;83;21146;-67
2022/10/26 03:48:09;;;;;;;10.95;6.53;;;;;;;12.19;100.00;100167.48;1714264;84;22097;-65
2022/10/26 03:50:38;;;;;;;9.30;5.87;;;;;;;12.19;100.00;100172.98;1711878;84;21563;-66
2022/10/26 03:53:07;;;;;;;11.68;6.33;;;;;;;12.18;100.00;100170.44;1709784;83;21139;-67
2022/10/26 03:55:36;;;;;;;10.40;6.47;;;;;;;12.21;100.00;100171.39;1712089;84;21566;-65
2022/10/26 03:58:06;;;;;;;8.40;5.62;;;;;;;12.21;100.00;100168.64;1712873;84;21102;-66
2022/10/26 04:00:35;;;;;;;9.85;5.67;;;;;;;12.21;100.00;100165.89;1713229;84;21107;-65
2022/10/26 04:03:05;;;;;;;9.33;6.12;;;;;;;12.21;100.00;100165.37;1710489;83;21206;-67
2022/10/26 04:05:35;;;;;;;11.90;6.62;;;;;;;12.23;100.00;100168.75;1712406;84;21805;-67
2022/10/26 04:08:04;;;;;;;11.38;6.58;;;;;;;12.22;100.00;100168.42;1713018;84;21194;-69
2022/10/26 04:10:35;;;;;;;12.78;7.08;;;;;;;12.25;100.00;100167.16;1710259;84;21330;-65
2022/10/26 04:13:03;;;;;;;13.40;6.97;;;;;;;12.25;100.00;100167.16;1711207;83;21142;-68
2022/10/26 04:15:33;;;;;;;12.37;7.40;;;;;;;12.27;100.00;100166.41;1712780;83;21138;-67
2022/10/26 04:18:03;;;;;;;13.30;7.92;;;;;;;12.28;100.00;100170.84;1723560;83;21157;-67
2022/10/26 04:20:33;;;;;;;12.82;7.83;;;;;;;12.26;100.00;100166.94;1723318;83;21141;-68
2022/10/26 04:23:06;;;;;;;13.80;8.33;;;;;;;12.27;100.00;100161.77;1722336;83;21585;-66
2022/10/26 04:25:36;;;;;;;12.03;7.10;;;;;;;12.26;100.00;100161.45;1722374;83;21201;-67
2022/10/26 04:28:05;;;;;;;11.05;7.05;;;;;;;12.26;100.00;100157.33;1718103;83;21206;-66
2022/10/26 04:30:36;;;;;;;10.72;6.50;;;;;;;12.26;100.00;100157.86;1722180;83;21145;-68
2022/10/26 04:33:05;;;;;;;10.85;5.62;;;;;;;12.25;100.00;100154.27;1715879;83;21182;-67
2022/10/26 04:35:35;;;;;;;9.23;5.80;;;;;;;12.23;100.00;100145.39;1718088;83;21600;-67
2022/10/26 04:38:05;;;;;;;9.30;5.83;;;;;;;12.23;100.00;100152.27;1721540;83;21154;-66
2022/10/26 04:40:34;;;;;;;10.53;5.90;;;;;;;12.22;100.00;100149.20;1719245;83;21181;-68
2022/10/26 04:43:05;;;;;;;8.83;6.08;;;;;;;12.22;100.00;100151.11;1728190;83;21611;-66
2022/10/26 04:45:36;;;;;;;10.30;6.28;;;;;;;12.20;100.00;100151.31;1720291;83;21158;-66
2022/10/26 04:48:09;;;;;;;12.47;6.33;;;;;;;12.21;100.00;100156.28;1720039;83;21157;-67
2022/10/26 04:50:39;;;;;;;8.98;5.97;;;;;;;12.22;100.00;100153.32;1713207;83;21182;-67
2022/10/26 04:53:10;;;;;;;8.60;5.58;;;;;;;12.22;100.00;100156.06;1714500;83;21219;-66
2022/10/26 04:55:40;;;;;;;9.28;6.30;;;;;;;12.24;100.00;100159.97;1721996;83;21537;-67
2022/10/26 04:58:08;;;;;;;10.30;6.08;;;;;;;12.25;100.00;100162.50;1721281;83;21145;-66
2022/10/26 05:00:37;;;;;;;9.38;5.55;;;;;;;12.27;100.00;100160.92;1720384;83;21137;-68
2022/10/26 05:03:09;;;;;;;8.65;5.55;;;;;;;12.27;100.00;100160.39;1719421;83;21134;-67
2022/10/26 05:05:41;;;;;;;8.28;5.05;;;;;;;12.28;100.00;100159.33;1725852;83;21624;-66
2022/10/26 05:08:11;;;;;;;7.87;5.55;;;;;;;12.29;100.00;100166.52;1723348;83;21177;-66
2022/10/26 05:10:40;;;;;;;10.80;6.50;;;;;;;12.32;100.00;100169.36;1718417;83;21134;-65
2022/10/26 05:13:09;;;;;;;11.50;6.60;;;;;;;12.33;100.00;100165.55;1721408;83;21149;-68
2022/10/26 05:15:38;;;;;;;9.58;6.00;;;;;;;12.33;100.00;100171.89;1730520;81;21210;-66
2022/10/26 05:18:08;;;;;;;11.85;6.20;;;;;;;12.36;100.00;100168.75;1731145;83;21122;-67
2022/10/26 05:20:37;;;;;;;10.40;5.67;;;;;;;12.37;100.00;100173.71;1700943;82;21069;-68
2022/10/26 05:23:08;;;;;;;9.13;5.75;;;;;;;12.37;100.00;100179.20;1730482;82;21581;-66
2022/10/26 05:25:37;;;;;;;9.35;5.28;;;;;;;12.37;100.00;100177.30;1716122;83;21130;-67
2022/10/26 05:28:12;;;;;;;12.20;6.78;;;;;;;12.40;100.00;100177.94;1726231;83;21182;-67
2022/10/26 05:30:44;;;;;;;7.92;4.95;;;;;;;12.40;100.00;100178.78;1673885;84;21650;-66
2022/10/26 05:33:13;;;;;;;12.95;6.10;;;;;;;12.41;100.00;100177.72;1704365;84;21205;-66
2022/10/26 05:35:43;;;;;;;8.93;5.65;;;;;;;12.41;100.00;100191.45;1706813;84;21425;-67
2022/10/26 05:38:24;;;;;;;12.30;6.22;;;;;;;12.44;100.00;100188.28;1706082;84;21126;-66
2022/10/26 05:40:53;;;;;;;12.78;5.78;;;;;;;12.44;100.00;100189.66;1695959;84;21172;-66
2022/10/26 05:43:23;;;;;;;10.00;6.10;;;;;;;12.44;100.00;100185.53;1703845;84;21194;-67
2022/10/26 05:45:53;;;;;;;16.05;6.40;;;;;;;12.45;100.00;100185.84;1701883;84;21189;-69
2022/10/26 05:48:23;;;;;;;14.18;6.50;;;;;;;12.44;100.00;100185.53;1706964;83;21531;-67
2022/10/26 05:50:52;;;;;;;8.88;5.62;;;;;;;12.43;100.00;100183.84;1728500;83;21153;-66
2022/10/26 05:53:21;;;;;;;9.60;6.05;;;;;;;12.44;100.00;100180.03;1730900;83;21177;-68
2022/10/26 05:55:53;;;;;;;11.03;6.00;;;;;;;12.45;100.00;100183.09;1729732;83;21122;-67
2022/10/26 05:58:23;;;;;;;12.60;5.53;;;;;;;12.48;100.00;100188.16;1731510;83;21150;-69
2022/10/26 06:01:13;;;;;;;9.33;6.15;;;;;;;12.49;100.00;100189.01;1717662;83;21173;-67
2022/10/26 06:04:21;;;;;;;10.18;6.03;;;;;;;12.51;100.00;100189.64;1728458;83;21577;-66
2022/10/26 06:06:53;;;;;;;8.80;5.75;;;;;;;12.54;100.00;100191.95;1729251;83;21106;-67
2022/10/26 06:09:24;;;;;;;11.75;8.60;;;;;;;12.57;100.00;100198.39;1731551;83;21157;-67
2022/10/26 06:11:54;;;;;;;10.18;5.70;;;;;;;12.59;100.00;100194.90;1728513;83;21189;-67
2022/10/26 06:14:25;;;;;;;9.90;5.47;;;;;;;12.61;100.00;100188.12;1656023;86;21600;-67
2022/10/26 06:17:02;;;;;;;8.90;6.03;;;;;;;12.63;100.00;100183.25;1638989;86;21182;-68
2022/10/26 06:19:48;;;;;;;9.70;5.45;;;;;;;12.65;100.00;100191.28;1635485;87;21186;-65
2022/10/26 06:22:38;;;;;;;11.70;5.40;;;;;;;12.65;100.00;100192.13;1625799;87;21159;-66
2022/10/26 06:25:22;;;;;;;9.55;5.75;;;;;;;12.67;100.00;100196.03;1623550;87;21232;-67
2022/10/26 06:28:05;;;;;;;8.25;4.97;;;;;;;12.70;100.00;100196.45;1645453;87;21130;-68
2022/10/26 06:30:34;;;;;;;8.58;5.12;;;;;;;12.74;100.00;100200.98;1631796;87;21336;-65
2022/10/26 06:33:05;;;;;;;8.48;5.37;;;;;;;12.75;100.00;100197.17;1675494;84;21138;-68
2022/10/26 06:36:03;;;;;;;9.15;5.62;;;;;;;12.81;100.00;100196.83;1679819;84;21225;-67
2022/10/26 06:38:34;;;;;;;10.88;5.15;;;;;;;12.83;100.00;100198.30;1697037;84;21123;-67
2022/10/26 06:41:05;;;;;;;8.25;5.25;;;;;;;12.87;100.00;100200.93;1703829;84;21249;-67
2022/10/26 06:43:36;;;;;;;9.55;5.17;;;;;;;12.90;100.00;100200.49;1703978;84;21131;-68
2022/10/26 06:46:27;;;;;;;7.25;4.67;;;;;;;12.94;100.00;100204.50;1703840;84;21206;-67
2022/10/26 06:49:17;;;;;;;7.65;4.60;;;;;;;12.96;100.00;100206.50;1703861;84;21602;-67
2022/10/26 06:52:06;;;;;;;7.47;4.55;;;;;;;12.99;100.00;100211.56;1703784;84;21166;-67
2022/10/26 06:54:50;;;;;;;11.03;4.90;;;;;;;13.05;100.00;100213.16;1707731;84;21147;-66
2022/10/26 06:57:23;;;;;;;8.65;5.70;;;;;;;13.11;100.00;100217.25;1696614;84;21511;-68
2022/10/26 06:59:55;;;;;;;10.28;4.80;;;;;;;13.15;100.00;100217.13;1703742;84;21135;-67
2022/10/26 07:02:24;;;;;;;7.10;4.17;;;;;;;13.18;100.00;100211.75;1671609;85;21166;-66
2022/10/26 07:04:54;;;;;;;8.28;4.75;;;;;;;13.23;100.00;100227.07;1674795;85;21632;-66
2022/10/26 07:07:26;;;;;;;6.45;4.37;;;;;;;13.25;100.00;100227.70;1667727;85;21124;-68
2022/10/26 07:09:55;;;;;;;6.90;4.47;;;;;;;13.27;99.93;100226.94;1675850;85;21201;-66
2022/10/26 07:12:24;;;;;;;6.17;4.17;;;;;;;13.30;99.62;100227.34;1665605;85;21166;-65
2022/10/26 07:14:57;;;;;;;5.72;3.95;;;;;;;13.31;98.99;100235.07;1676909;85;21546;-65
2022/10/26 07:17:27;;;;;;;5.12;3.70;;;;;;;13.33;98.86;100233.78;1649887;85;21119;-66
2022/10/26 07:19:56;;;;;;;7.08;3.62;;;;;;;13.35;98.64;100233.56;1664626;85;21575;-66
2022/10/26 07:22:25;;;;;;;8.43;4.25;;;;;;;13.37;98.49;100230.06;1650298;87;21233;-68
2022/10/26 07:24:54;;;;;;;6.20;4.78;;;;;;;13.39;98.46;100236.19;1710549;82;21198;-67
2022/10/26 07:27:25;;;;;;;9.53;4.33;;;;;;;13.41;98.33;100238.19;1709422;84;21146;-67
2022/10/26 07:29:54;;;;;;;11.48;4.55;;;;;;;13.43;98.20;100242.09;1711164;84;21189;-66
2022/10/26 07:32:23;;;;;;;6.67;4.08;;;;;;;13.44;98.18;100247.38;1711699;84;21561;-70
2022/10/26 07:34:53;;;;;;;6.58;4.25;;;;;;;13.48;98.08;100245.03;1711174;84;21135;-69
2022/10/26 07:37:22;;;;;;;7.62;4.60;;;;;;;13.50;97.87;100247.88;1709802;84;21182;-66
2022/10/26 07:39:52;;;;;;;7.33;4.60;;;;;;;13.49;97.58;100255.82;1713072;84;21598;-66
2022/10/26 07:42:22;;;;;;;7.37;4.20;;;;;;;13.50;97.67;100253.38;1710327;83;21229;-66
2022/10/26 07:44:51;;;;;;;8.60;4.33;;;;;;;13.53;97.79;100253.47;1682004;84;21146;-67
2022/10/26 07:47:20;;;;;;;7.40;3.98;;;;;;;13.56;97.66;100251.66;1710343;84;21174;-69
2022/10/26 07:49:49;;;;;;;7.87;4.58;;;;;;;13.58;97.52;100263.29;1710864;84;21213;-67
2022/10/26 07:52:18;;;;;;;8.33;4.70;;;;;;;13.59;97.41;100259.47;1713215;84;21152;-66
2022/10/26 07:54:47;;;;;;;6.87;4.40;;;;;;;13.60;97.25;100258.41;1711459;83;21122;-67
2022/10/26 07:57:17;;;;;;;5.42;3.65;;;;;;;13.61;97.29;100256.81;1712298;84;21170;-67
2022/10/26 07:59:47;;;;;;;9.08;4.33;;;;;;;13.64;97.17;100256.90;1712362;83;21131;-68
2022/10/26 08:02:18;;;;;;;10.72;4.30;;;;;;;13.67;97.27;100255.11;1713263;84;21150;-67
2022/10/26 08:04:46;;;;;;;7.42;4.37;;;;;;;13.70;97.31;100260.17;1711443;84;21620;-66
2022/10/26 08:07:15;;;;;;;6.65;4.78;;;;;;;13.72;97.07;100266.84;1711471;83;21150;-68
2022/10/26 08:09:45;;;;;;;7.87;4.80;;;;;;;13.72;96.98;100258.58;1711898;83;21162;-66
2022/10/26 08:12:15;;;;;;;10.63;5.67;;;;;;;13.71;96.72;100264.62;1708908;84;21210;-67
2022/10/26 08:14:44;;;;;;;8.33;4.45;;;;;;;13.71;96.72;100261.86;1711946;82;21301;-64
2022/10/26 08:17:13;;;;;;;7.50;4.08;;;;;;;13.74;96.61;100271.59;1706205;83;21130;-67
2022/10/26 08:19:43;;;;;;;5.70;3.65;;;;;;;13.76;96.40;100273.59;1709761;83;21178;-67
2022/10/26 08:22:12;;;;;;;8.73;4.58;;;;;;;13.77;96.10;100273.37;1712523;83;21157;-64
2022/10/26 08:24:43;;;;;;;10.68;4.95;;;;;;;13.79;95.74;100271.23;1708991;83;21158;-69
2022/10/26 08:27:13;;;;;;;10.98;4.58;;;;;;;13.80;95.59;100278.97;1715805;83;21612;-64
2022/10/26 08:29:43;;;;;;;7.87;3.95;;;;;;;13.83;95.62;100270.26;1711709;83;21197;-66
2022/10/26 08:32:14;;;;;;;8.43;3.55;;;;;;;13.89;95.70;100274.87;1712425;83;21225;-70
2022/10/26 08:34:43;;;;;;;5.50;3.50;;;;;;;13.95;95.46;100273.98;1715452;83;21190;-65
2022/10/26 08:37:12;;;;;;;5.47;3.40;;;;;;;14.00;95.10;100274.16;1696392;83;21151;-66
2022/10/26 08:39:42;;;;;;;7.47;4.10;;;;;;;14.03;94.64;100268.20;1708259;83;21165;-66
2022/10/26 08:42:18;;;;;;;9.05;4.17;;;;;;;14.07;94.37;100275.48;1710171;83;21523;-69
2022/10/26 08:44:50;;;;;;;7.72;3.98;;;;;;;14.09;94.05;100288.51;1715734;83;21225;-69
2022/10/26 08:47:23;;;;;;;6.40;3.40;;;;;;;14.12;93.90;100276.50;1707569;83;21166;-65
2022/10/26 08:50:12;;;;;;;8.95;4.20;;;;;;;14.16;93.60;100281.03;1707148;83;21139;-67
2022/10/26 08:53:02;;;;;;;8.28;3.98;;;;;;;14.19;93.34;100286.94;1715091;83;21186;-66
2022/10/26 08:55:42;;;;;;;7.45;4.22;;;;;;;14.22;93.36;100285.64;1708865;83;21162;-65
2022/10/26 08:58:21;;;;;;;7.15;4.00;;;;;;;14.29;93.33;100288.66;1716420;83;21632;-66
2022/10/26 09:00:49;;;;;;;6.83;3.60;;;;;;;14.36;93.04;100290.55;1712291;83;21480;-64
2022/10/26 09:03:23;;;;;;;5.00;3.37;;;;;;;14.39;92.39;100288.18;1695983;83;21142;-65
2022/10/26 09:06:19;;;;;;;7.70;3.98;;;;;;;14.40;91.93;100287.11;1694859;83;21201;-68
2022/10/26 09:09:19;;;;;;;8.08;3.67;;;;;;;14.40;91.48;100288.49;1680323;84;21142;-65
2022/10/26 09:12:12;;;;;;;11.57;4.95;;;;;;;14.39;90.96;100296.98;1711259;83;21122;-67
2022/10/26 09:14:54;;;;;;;6.15;3.80;;;;;;;14.36;90.92;100298.81;1712566;83;21174;-65
2022/10/26 09:17:41;;;;;;;5.30;3.80;;;;;;;14.38;90.98;100296.14;1715194;82;21656;-65
2022/10/26 09:20:30;;;;;;;6.47;3.33;;;;;;;14.40;90.98;100295.92;1716914;83;21213;-65
2022/10/26 09:23:21;;;;;;;6.03;3.20;;;;;;;14.43;90.71;100301.02;1690400;83;21190;-64
2022/10/26 09:26:01;;;;;;;5.58;3.25;;;;;;;14.49;90.46;100304.25;1715132;83;21185;-65
2022/10/26 09:28:36;;;;;;;5.92;3.00;;;;;;;14.51;89.93;100309.00;1716661;83;21647;-63
2022/10/26 09:31:05;;;;;;;6.30;3.40;;;;;;;14.50;89.66;100305.94;1716644;83;21624;-65
2022/10/26 09:33:37;;;;;;;7.45;3.37;;;;;;;14.50;89.22;100306.77;1716820;83;21186;-64
2022/10/26 09:36:13;;;;;;;6.78;3.10;;;;;;;14.50;89.15;100308.16;1693198;84;21641;-64
2022/10/26 09:39:20;;;;;;;6.62;4.37;;;;;;;14.50;89.03;100310.06;1700232;83;21577;-65
2022/10/26 09:41:56;;;;;;;7.83;3.70;;;;;;;14.51;89.21;100309.84;1687959;83;21158;-64
2022/10/26 09:44:39;;;;;;;6.17;3.35;;;;;;;14.56;89.24;100313.30;1716273;83;21558;-64
2022/10/26 09:47:34;;;;;;;5.87;3.58;;;;;;;14.65;89.49;100311.10;1715641;83;21574;-64
2022/10/26 09:50:20;;;;;;;5.35;3.20;;;;;;;14.73;89.49;100311.66;1714190;83;21162;-65
2022/10/26 09:52:51;;;;;;;5.85;3.37;;;;;;;14.77;89.01;100307.37;1716240;83;21266;-64
2022/10/26 09:55:21;;;;;;;9.25;4.12;;;;;;;14.78;88.87;100306.83;1712963;83;21594;-63
2022/10/26 09:57:54;;;;;;;7.22;3.70;;;;;;;14.77;88.93;100304.61;1716484;83;21126;-65
2022/10/26 10:00:24;;;;;;;7.25;3.80;;;;;;;14.73;88.69;100306.13;1716291;83;21103;-64
2022/10/26 10:02:59;;;;;;;9.63;4.05;;;;;;;14.70;88.90;100310.73;1715129;82;21213;-66
2022/10/26 10:05:34;;;;;;;10.58;3.98;;;;;;;14.68;89.40;100315.63;1693247;83;21173;-69
2022/10/26 10:08:27;;;;;;;8.38;4.17;;;;;;;14.66;90.23;100316.39;1713572;83;21158;-67
2022/10/26 10:11:14;;;;;;;8.18;4.30;;;;;;;14.64;91.04;100317.69;1708005;83;21729;-65
2022/10/26 10:13:48;;;;;;;8.30;4.33;;;;;;;14.56;91.46;100314.68;1719556;83;21169;-64
2022/10/26 10:16:24;;;;;;;9.15;4.47;;;;;;;14.50;92.13;100312.29;1715080;83;21102;-65
2022/10/26 10:19:00;;;;;;;7.03;4.00;;;;;;;14.52;93.09;100313.44;1719136;83;21150;-65
2022/10/26 10:21:42;;;;;;;11.12;4.85;;;;;;;14.54;93.40;100307.17;1720138;83;21150;-66
2022/10/26 10:24:28;;;;;;;9.58;4.92;;;;;;;14.55;93.33;100307.48;1709178;83;21147;-64
2022/10/26 10:27:05;;;;;;;6.92;4.37;;;;;;;14.57;93.64;100310.85;1722138;83;21111;-63
2022/10/26 10:29:45;;;;;;;6.08;4.05;;;;;;;14.59;94.01;100307.34;1722112;83;21141;-64
2022/10/26 10:32:21;;;;;;;9.28;4.40;;;;;;;14.63;93.57;100307.73;1709863;81;21609;-67
2022/10/26 10:34:53;;;;;;;6.78;4.15;;;;;;;14.64;93.49;100306.12;1715794;83;21188;-66
2022/10/26 10:37:40;;;;;;;8.08;4.42;;;;;;;14.70;93.30;100303.83;1720336;83;21158;-64
2022/10/26 10:40:18;;;;;;;8.93;4.42;;;;;;;14.74;92.99;100303.69;1716061;83;21175;-66
2022/10/26 10:42:48;;;;;;;8.30;4.15;;;;;;;14.77;92.37;100300.47;1726381;83;21193;-65
2022/10/26 10:45:28;;;;;;;8.15;3.98;;;;;;;14.79;92.11;100303.84;1720185;83;21707;-65
2022/10/26 10:48:13;;;;;;;8.63;5.05;;;;;;;14.81;91.87;100309.98;1720322;83;21204;-64
2022/10/26 10:51:09;;;;;;;7.22;4.50;;;;;;;14.82;91.64;100308.91;1719353;83;21189;-64
2022/10/26 10:53:43;;;;;;;7.60;4.67;;;;;;;14.84;91.68;100307.30;1689828;83;21181;-64
2022/10/26 10:56:35;;;;;;;9.68;5.30;;;;;;;14.86;91.92;100321.17;1711263;83;21603;-65
2022/10/26 10:59:31;;;;;;;9.28;4.25;;;;;;;14.87;91.80;100320.10;1674737;83;21545;-63
2022/10/26 11:02:19;;;;;;;8.98;4.25;;;;;;;14.86;91.45;100319.80;1727430;83;21141;-64
2022/10/26 11:05:10;;;;;;;8.03;4.50;;;;;;;14.87;91.24;100319.26;1713034;83;21103;-64
2022/10/26 11:07:55;;;;;;;12.28;4.85;;;;;;;14.84;90.44;100321.94;1718671;83;21149;-64
2022/10/26 11:10:26;;;;;;;9.28;4.92;;;;;;;14.83;90.34;100324.39;1711921;83;21565;-66
2022/10/26 11:12:58;;;;;;;9.55;5.05;;;;;;;14.80;89.66;100320.70;1728159;83;21165;-64
2022/10/26 11:15:30;;;;;;;8.35;4.80;;;;;;;14.78;89.23;100323.38;1700805;83;21565;-65
2022/10/26 11:18:18;;;;;;;10.50;4.70;;;;;;;14.77;89.28;100313.42;1714516;82;21206;-66
2022/10/26 11:20:52;;;;;;;8.73;4.45;;;;;;;14.77;89.23;100317.56;1707682;83;21145;-66
2022/10/26 11:23:39;;;;;;;7.85;4.03;;;;;;;14.77;89.13;100312.04;1714432;82;21185;-62
2022/10/26 11:26:33;;;;;;;7.65;4.33;;;;;;;14.78;88.58;100315.11;1714082;83;21155;-65
2022/10/26 11:29:08;;;;;;;8.80;4.65;;;;;;;14.74;87.83;100313.34;1672133;83;21182;-65
2022/10/26 11:31:41;;;;;;;9.75;4.65;;;;;;;14.70;87.36;100314.86;1701465;84;21568;-64
2022/10/26 11:34:30;;;;;;;11.63;5.17;;;;;;;14.65;87.24;100317.99;1701134;84;21202;-64
2022/10/26 11:37:14;;;;;;;11.83;5.00;;;;;;;14.65;87.33;100317.45;1702822;84;21551;-65
2022/10/26 11:39:46;;;;;;;15.65;6.37;;;;;;;14.64;87.55;100322.67;1694012;84;21130;-63
2022/10/26 11:42:25;;;;;;;9.10;5.37;;;;;;;14.63;87.08;100318.22;1700998;84;21547;-66
2022/10/26 11:45:29;;;;;;;8.70;4.80;;;;;;;14.63;86.96;100324.27;1699694;84;21136;-71
2022/10/26 11:48:24;;;;;;;10.70;4.95;;;;;;;14.61;86.95;100319.52;1707878;83;21153;-68
2022/10/26 11:50:57;;;;;;;12.63;5.70;;;;;;;14.59;86.96;100321.13;1717557;83;21699;-65
2022/10/26 11:53:39;;;;;;;9.73;5.40;;;;;;;14.55;86.77;100326.78;1701719;83;21128;-65
2022/10/26 11:56:20;;;;;;;8.53;4.95;;;;;;;14.54;86.95;100316.28;1658759;86;22033;-65